createdAt,value
2023-12-19T00:00:38.933Z,23.63
2023-12-19T00:03:06.658Z,21.53
2023-12-19T00:05:34.133Z,24.17
2023-12-19T00:08:01.772Z,20.93
2023-12-19T00:10:29.170Z,21.53
2023-12-19T00:12:57.166Z,21.53
2023-12-19T00:15:24.648Z,21.20
2023-12-19T00:17:52.358Z,21.60
2023-12-19T00:20:19.949Z,22.50
2023-12-19T00:22:47.593Z,24.70
2023-12-19T00:25:14.916Z,23.00
2023-12-19T00:27:42.481Z,23.63
2023-12-19T00:30:10.282Z,21.30
2023-12-19T00:32:37.789Z,20.80
2023-12-19T00:35:06.013Z,21.50
2023-12-19T00:37:33.398Z,23.73
2023-12-19T00:40:00.913Z,21.90
2023-12-19T00:42:28.419Z,23.80
2023-12-19T00:44:55.760Z,20.70
2023-12-19T00:47:23.201Z,20.53
2023-12-19T00:49:51.476Z,20.80
2023-12-19T00:52:19.128Z,20.03
2023-12-19T00:54:46.505Z,20.10
2023-12-19T00:57:14.245Z,19.93
2023-12-19T00:59:41.554Z,19.13
2023-12-19T01:02:08.893Z,18.23
2023-12-19T01:04:36.672Z,19.57
2023-12-19T01:07:04.206Z,17.67
2023-12-19T01:09:31.634Z,17.77
2023-12-19T01:12:00.096Z,18.53
2023-12-19T01:14:27.431Z,18.23
2023-12-19T01:16:55.227Z,17.93
2023-12-19T01:19:22.712Z,19.10
2023-12-19T01:21:50.106Z,20.10
2023-12-19T01:24:17.555Z,19.77
2023-12-19T01:26:46.172Z,20.40
2023-12-19T01:29:13.458Z,19.83
2023-12-19T01:31:41.134Z,20.93
2023-12-19T01:34:08.678Z,19.27
2023-12-19T01:36:36.241Z,19.67
2023-12-19T01:39:03.740Z,19.97
2023-12-19T01:41:31.185Z,20.60
2023-12-19T01:43:59.867Z,19.63
2023-12-19T01:46:27.610Z,19.73
2023-12-19T01:48:55.837Z,22.00
2023-12-19T01:51:23.377Z,22.67
2023-12-19T01:53:51.530Z,23.17
2023-12-19T01:56:20.586Z,23.10
2023-12-19T01:58:48.491Z,22.03
2023-12-19T02:01:17.962Z,21.43
2023-12-19T02:03:47.240Z,21.00
2023-12-19T02:06:15.447Z,21.97
2023-12-19T02:08:42.699Z,20.93
2023-12-19T02:11:10.901Z,21.43
2023-12-19T02:13:39.066Z,21.10
2023-12-19T02:16:06.938Z,20.60
2023-12-19T02:18:34.377Z,18.60
2023-12-19T02:21:02.113Z,19.73
2023-12-19T02:23:29.515Z,20.20
2023-12-19T02:25:57.113Z,20.10
2023-12-19T02:28:25.155Z,18.63
2023-12-19T02:30:52.631Z,18.00
2023-12-19T02:33:20.767Z,17.90
2023-12-19T02:35:48.270Z,17.90
2023-12-19T02:38:15.554Z,17.93
2023-12-19T02:40:43.005Z,17.60
2023-12-19T02:43:10.428Z,17.23
2023-12-19T02:45:37.742Z,17.17
2023-12-19T02:48:05.714Z,18.30
2023-12-19T02:50:33.142Z,17.27
2023-12-19T02:53:00.553Z,16.93
2023-12-19T02:55:27.909Z,16.47
2023-12-19T02:57:55.286Z,16.37
2023-12-19T03:00:22.807Z,14.83
2023-12-19T03:02:50.154Z,15.97
2023-12-19T03:05:19.213Z,16.20
2023-12-19T03:07:46.617Z,15.80
2023-12-19T03:10:14.159Z,16.43
2023-12-19T03:12:41.797Z,13.17
2023-12-19T03:15:09.832Z,12.27
2023-12-19T03:17:37.790Z,12.60
2023-12-19T03:20:07.176Z,11.50
2023-12-19T03:22:34.620Z,10.90
2023-12-19T03:25:10.962Z,12.40
2023-12-19T03:27:38.272Z,12.23
2023-12-19T03:30:06.421Z,12.83
2023-12-19T03:32:33.768Z,15.07
2023-12-19T03:35:01.221Z,20.37
2023-12-19T03:37:28.667Z,15.00
2023-12-19T03:39:56.115Z,14.07
2023-12-19T03:42:23.431Z,13.63
2023-12-19T03:44:50.947Z,14.83
2023-12-19T03:47:18.395Z,14.40
2023-12-19T03:49:45.896Z,14.67
2023-12-19T03:52:13.201Z,14.43
2023-12-19T03:54:40.642Z,14.67
2023-12-19T03:57:07.947Z,13.97
2023-12-19T03:59:35.336Z,14.27
2023-12-19T04:02:02.761Z,13.23
2023-12-19T04:04:30.221Z,14.43
2023-12-19T04:06:57.747Z,13.70
2023-12-19T04:09:25.309Z,13.10
2023-12-19T04:11:52.607Z,11.50
2023-12-19T04:14:19.960Z,12.23
2023-12-19T04:16:47.322Z,11.80
2023-12-19T04:19:14.889Z,10.77
2023-12-19T04:21:42.760Z,12.93
2023-12-19T04:24:11.865Z,11.70
2023-12-19T04:26:39.104Z,13.73
2023-12-19T04:29:06.611Z,13.60
2023-12-19T04:31:34.168Z,13.87
2023-12-19T04:34:03.106Z,13.63
2023-12-19T04:36:32.187Z,12.23
2023-12-19T04:38:59.805Z,13.93
2023-12-19T04:41:27.400Z,13.13
2023-12-19T04:43:55.190Z,12.90
2023-12-19T04:46:22.691Z,12.77
2023-12-19T04:48:50.175Z,13.53
2023-12-19T04:51:20.607Z,13.27
2023-12-19T04:53:48.907Z,13.67
2023-12-19T04:56:17.771Z,12.77
2023-12-19T04:58:47.296Z,12.80
2023-12-19T05:01:15.472Z,12.73
2023-12-19T05:03:43.655Z,11.20
2023-12-19T05:06:20.808Z,10.43
2023-12-19T05:08:49.299Z,10.80
2023-12-19T05:11:16.557Z,10.43
2023-12-19T05:13:43.864Z,10.40
2023-12-19T05:16:20.097Z,10.37
2023-12-19T05:18:48.086Z,10.70
2023-12-19T05:21:15.655Z,10.77
2023-12-19T05:23:43.147Z,10.77
2023-12-19T05:26:10.682Z,10.67
2023-12-19T05:28:41.386Z,10.83
2023-12-19T05:31:11.019Z,10.27
2023-12-19T05:33:38.708Z,10.37
2023-12-19T05:36:06.282Z,11.17
2023-12-19T05:38:33.942Z,11.60
2023-12-19T05:41:03.030Z,11.27
2023-12-19T05:43:30.344Z,14.27
2023-12-19T05:45:58.142Z,14.60
2023-12-19T05:48:25.859Z,11.63
2023-12-19T05:50:53.570Z,11.53
2023-12-19T05:53:21.052Z,11.73
2023-12-19T05:55:48.820Z,10.97
2023-12-19T05:58:16.149Z,12.17
2023-12-19T06:00:46.057Z,12.30
2023-12-19T06:03:13.866Z,13.53
2023-12-19T06:05:41.380Z,12.70
2023-12-19T06:08:09.150Z,11.27
2023-12-19T06:10:36.694Z,11.33
2023-12-19T06:13:04.352Z,11.03
2023-12-19T06:15:31.751Z,11.40
2023-12-19T06:17:59.305Z,12.43
2023-12-19T06:20:26.666Z,11.63
2023-12-19T06:22:53.978Z,12.30
2023-12-19T06:25:21.514Z,12.40
2023-12-19T06:27:49.019Z,12.33
2023-12-19T06:30:25.614Z,11.87
2023-12-19T06:32:56.459Z,13.17
2023-12-19T06:35:24.779Z,13.00
2023-12-19T06:37:52.411Z,12.80
2023-12-19T06:40:19.928Z,12.53
2023-12-19T06:42:49.547Z,12.87
2023-12-19T06:45:17.454Z,13.47
2023-12-19T06:47:46.726Z,13.57
2023-12-19T06:50:14.351Z,13.37
2023-12-19T06:52:42.400Z,13.20
2023-12-19T06:55:13.530Z,14.33
2023-12-19T06:57:41.080Z,13.13
2023-12-19T07:00:09.024Z,14.07
2023-12-19T07:02:39.190Z,14.13
2023-12-19T07:11:04.629Z,14.77
2023-12-19T07:13:33.834Z,16.07
2023-12-19T07:16:02.409Z,15.53
2023-12-19T07:18:30.077Z,15.10
2023-12-19T07:20:57.604Z,15.13
2023-12-19T07:23:25.955Z,14.83
2023-12-19T07:25:53.436Z,14.20
2023-12-19T07:28:20.949Z,15.03
2023-12-19T07:30:48.375Z,14.30
2023-12-19T07:33:15.859Z,15.07
2023-12-19T07:35:43.346Z,12.40
2023-12-19T07:38:11.522Z,13.73
2023-12-19T07:40:38.879Z,13.87
2023-12-19T07:43:06.452Z,14.80
2023-12-19T07:45:34.038Z,14.33
2023-12-19T07:48:01.569Z,14.13
2023-12-19T07:50:29.055Z,12.60
2023-12-19T07:52:56.500Z,13.23
2023-12-19T07:55:23.885Z,13.87
2023-12-19T07:57:51.402Z,14.10
2023-12-19T08:00:19.244Z,13.83
2023-12-19T08:02:51.014Z,16.10
2023-12-19T08:05:18.500Z,16.80
2023-12-19T08:07:45.804Z,16.77
2023-12-19T08:10:13.271Z,15.53
2023-12-19T08:12:40.842Z,14.63
2023-12-19T08:15:11.506Z,16.00
2023-12-19T08:17:39.815Z,16.87
2023-12-19T08:20:08.689Z,14.50
2023-12-19T08:22:36.070Z,14.57
2023-12-19T08:25:04.447Z,14.73
2023-12-19T08:27:36.342Z,13.77
2023-12-19T08:30:04.716Z,14.10
2023-12-19T08:32:32.177Z,15.40
2023-12-19T08:35:00.314Z,14.50
2023-12-19T08:37:27.869Z,14.53
2023-12-19T08:39:57.738Z,15.07
2023-12-19T08:42:25.194Z,13.87
2023-12-19T08:44:53.563Z,13.30
2023-12-19T08:47:21.064Z,9.83
2023-12-19T08:49:48.424Z,12.17
2023-12-19T08:52:15.905Z,10.50
2023-12-19T08:54:43.419Z,12.10
2023-12-19T08:57:10.861Z,9.83
2023-12-19T08:59:38.242Z,9.17
2023-12-19T09:02:05.964Z,8.63
2023-12-19T09:04:34.027Z,8.30
2023-12-19T09:07:01.822Z,8.50
2023-12-19T09:09:29.843Z,8.17
2023-12-19T09:11:57.253Z,7.97
2023-12-19T09:14:24.721Z,7.93
2023-12-19T09:16:52.227Z,8.20
2023-12-19T09:19:19.753Z,8.37
2023-12-19T09:21:47.471Z,8.13
2023-12-19T09:24:14.943Z,8.80
2023-12-19T09:26:42.305Z,8.17
2023-12-19T09:29:09.680Z,8.23
2023-12-19T09:31:37.269Z,9.37
2023-12-19T09:34:04.799Z,8.20
2023-12-19T09:36:33.390Z,9.07
2023-12-19T09:39:01.022Z,8.07
2023-12-19T09:41:28.443Z,8.40
2023-12-19T09:43:55.874Z,8.43
2023-12-19T09:46:25.801Z,10.20
2023-12-19T09:48:53.197Z,7.97
2023-12-19T09:51:31.515Z,8.10
2023-12-19T09:54:01.733Z,7.93
2023-12-19T09:56:29.326Z,7.57
2023-12-19T09:58:57.636Z,8.53
2023-12-19T10:01:27.694Z,7.57
2023-12-19T10:03:57.147Z,7.97
2023-12-19T10:06:24.740Z,7.40
2023-12-19T10:08:53.700Z,7.73
2023-12-19T10:11:25.999Z,7.63
2023-12-19T10:13:53.427Z,6.23
2023-12-19T10:16:31.836Z,6.20
2023-12-19T10:19:01.928Z,6.23
2023-12-19T10:21:31.180Z,6.90
2023-12-19T10:24:13.592Z,5.80
2023-12-19T10:26:42.173Z,5.30
2023-12-19T10:29:09.588Z,5.80
2023-12-19T10:31:37.545Z,5.53
2023-12-19T10:34:06.710Z,5.27
2023-12-19T10:36:35.567Z,5.03
2023-12-19T10:39:09.161Z,4.83
2023-12-19T10:41:39.396Z,5.83
2023-12-19T10:44:08.886Z,5.20
2023-12-19T10:46:37.515Z,4.97
2023-12-19T10:49:05.897Z,5.10
2023-12-19T10:51:43.668Z,4.87
2023-12-19T10:54:18.659Z,5.60
2023-12-19T10:57:17.747Z,4.67
2023-12-19T10:59:56.977Z,4.60
2023-12-19T11:02:42.140Z,5.40
2023-12-19T11:05:24.863Z,6.10
2023-12-19T11:07:59.182Z,4.77
2023-12-19T11:10:31.687Z,5.20
2023-12-19T11:12:59.458Z,5.20
2023-12-19T11:15:29.037Z,5.03
2023-12-19T11:17:56.529Z,5.17
2023-12-19T11:20:32.627Z,5.27
2023-12-19T11:23:19.920Z,5.27
2023-12-19T11:25:55.528Z,5.13
2023-12-19T11:28:23.013Z,5.70
2023-12-19T11:30:50.539Z,5.90
2023-12-19T11:33:30.309Z,5.83
2023-12-19T11:36:10.495Z,6.60
2023-12-19T11:38:38.034Z,6.53
2023-12-19T11:41:05.385Z,8.60
2023-12-19T11:43:32.695Z,7.73
2023-12-19T11:46:09.107Z,9.43
2023-12-19T11:48:45.564Z,9.57
2023-12-19T11:51:13.751Z,8.63
2023-12-19T11:53:42.613Z,10.07
2023-12-19T11:56:12.550Z,8.17
2023-12-19T11:58:44.107Z,6.10
2023-12-19T12:01:11.738Z,6.17
2023-12-19T12:03:39.231Z,6.43
2023-12-19T12:06:09.833Z,6.27
2023-12-19T12:08:37.439Z,6.90
2023-12-19T12:11:06.722Z,6.90
2023-12-19T12:13:35.195Z,12.23
2023-12-19T12:16:03.902Z,5.90
2023-12-19T12:18:34.894Z,6.23
2023-12-19T12:21:09.833Z,6.00
2023-12-19T12:23:37.688Z,6.07
2023-12-19T12:26:07.261Z,6.30
2023-12-19T12:28:35.906Z,6.37
2023-12-19T12:31:04.886Z,7.07
2023-12-19T12:33:37.409Z,6.87
2023-12-19T12:36:12.409Z,6.77
2023-12-19T12:38:39.950Z,6.87
2023-12-19T12:41:08.705Z,6.80
2023-12-19T12:43:41.693Z,6.83
2023-12-19T12:46:13.885Z,6.73
2023-12-19T12:48:45.704Z,7.50
2023-12-19T12:51:17.458Z,6.87
2023-12-19T12:53:45.173Z,6.67
2023-12-19T12:56:17.836Z,6.57
2023-12-19T12:58:45.672Z,7.00
2023-12-19T13:01:13.280Z,6.87
2023-12-19T13:03:40.800Z,6.80
2023-12-19T13:06:09.403Z,7.40
2023-12-19T13:08:38.189Z,6.47
2023-12-19T13:11:09.345Z,6.80
2023-12-19T13:13:37.684Z,8.97
2023-12-19T13:16:05.680Z,7.30
2023-12-19T13:18:33.172Z,7.20
2023-12-19T13:21:00.590Z,7.23
2023-12-19T13:23:28.160Z,7.43
2023-12-19T13:25:58.060Z,7.87
2023-12-19T13:28:25.898Z,6.50
2023-12-19T13:30:53.859Z,7.23
2023-12-19T13:33:22.844Z,7.80
2023-12-19T13:35:50.989Z,7.00
2023-12-19T13:38:20.206Z,6.57
2023-12-19T13:40:48.007Z,7.00
2023-12-19T13:43:15.748Z,6.73
2023-12-19T13:45:43.282Z,6.30
2023-12-19T13:48:10.841Z,7.37
2023-12-19T13:50:38.547Z,7.10
2023-12-19T13:53:06.005Z,7.37
2023-12-19T13:55:35.575Z,6.83
2023-12-19T13:58:03.159Z,7.57
2023-12-19T14:00:33.296Z,7.70
2023-12-19T14:03:01.449Z,7.27
2023-12-19T14:05:29.729Z,7.73
2023-12-19T14:07:57.803Z,7.10
2023-12-19T14:10:26.408Z,8.03
2023-12-19T14:12:54.463Z,7.87
2023-12-19T14:15:23.797Z,8.13
2023-12-19T14:17:51.503Z,7.80
2023-12-19T14:20:19.781Z,8.37
2023-12-19T14:22:47.492Z,8.20
2023-12-19T14:25:15.081Z,8.40
2023-12-19T14:27:42.909Z,8.07
2023-12-19T14:30:11.325Z,8.10
2023-12-19T14:32:39.991Z,8.77
2023-12-19T14:35:10.206Z,9.20
2023-12-19T14:37:38.161Z,8.63
2023-12-19T14:40:06.195Z,8.83
2023-12-19T14:42:33.824Z,8.30
2023-12-19T14:45:01.681Z,8.37
2023-12-19T14:47:30.451Z,8.20
2023-12-19T14:49:58.790Z,8.07
2023-12-19T14:52:27.149Z,8.50
2023-12-19T14:54:54.990Z,8.83
2023-12-19T14:57:26.307Z,8.40
2023-12-19T14:59:54.433Z,8.00
2023-12-19T15:02:22.324Z,8.10
2023-12-19T15:04:49.978Z,8.50
2023-12-19T15:07:17.746Z,8.67
2023-12-19T15:09:45.912Z,8.53
2023-12-19T15:12:13.527Z,8.73
2023-12-19T15:14:41.052Z,8.50
2023-12-19T15:17:09.119Z,9.53
2023-12-19T15:19:39.194Z,9.70
2023-12-19T15:22:07.301Z,10.90
2023-12-19T15:24:38.223Z,11.03
2023-12-19T15:27:07.190Z,11.50
2023-12-19T15:29:35.040Z,11.33
2023-12-19T15:32:02.971Z,10.90
2023-12-19T15:34:33.430Z,11.47
2023-12-19T15:37:00.970Z,12.13
2023-12-19T15:39:28.580Z,12.00
2023-12-19T15:41:56.579Z,11.47
2023-12-19T15:44:24.208Z,11.90
2023-12-19T15:46:51.792Z,12.73
2023-12-19T15:49:19.460Z,11.80
2023-12-19T15:51:47.192Z,12.60
2023-12-19T15:54:17.406Z,11.90
2023-12-19T15:56:45.865Z,12.50
2023-12-19T15:59:13.428Z,12.20
2023-12-19T16:01:41.337Z,12.80
2023-12-19T16:04:09.848Z,12.37
2023-12-19T16:06:39.084Z,12.43
2023-12-19T16:09:06.766Z,10.97
2023-12-19T16:11:35.613Z,11.73
2023-12-19T16:14:06.359Z,12.57
2023-12-19T16:16:37.390Z,11.67
2023-12-19T16:19:06.246Z,12.03
2023-12-19T16:21:47.874Z,10.53
2023-12-19T16:24:15.745Z,10.80
2023-12-19T16:26:46.850Z,11.93
2023-12-19T16:29:16.804Z,11.57
2023-12-19T16:31:44.704Z,10.57
2023-12-19T16:34:12.502Z,11.27
2023-12-19T16:36:41.227Z,10.63
2023-12-19T16:39:09.240Z,12.63
2023-12-19T16:41:36.916Z,12.67
2023-12-19T16:44:04.516Z,12.80
2023-12-19T16:46:39.592Z,11.40
2023-12-19T16:49:12.491Z,11.57
2023-12-19T16:51:41.154Z,10.77
2023-12-19T16:54:08.935Z,11.77
2023-12-19T16:56:38.154Z,10.67
2023-12-19T16:59:06.377Z,10.70
2023-12-19T17:01:39.212Z,10.37
2023-12-19T17:04:07.633Z,10.90
2023-12-19T17:06:35.352Z,11.00
2023-12-19T17:09:03.841Z,10.17
2023-12-19T17:11:31.390Z,11.30
2023-12-19T17:13:58.886Z,12.37
2023-12-19T17:16:27.231Z,11.60
2023-12-19T17:18:54.994Z,12.00
2023-12-19T17:21:22.662Z,12.27
2023-12-19T17:23:53.639Z,12.27
2023-12-19T17:26:25.200Z,11.97
2023-12-19T17:28:52.806Z,14.00
2023-12-19T17:31:20.705Z,13.40
2023-12-19T17:33:48.600Z,12.07
2023-12-19T17:36:22.264Z,14.23
2023-12-19T17:38:50.018Z,12.30
2023-12-19T17:41:27.610Z,13.87
2023-12-19T17:43:55.303Z,12.93
2023-12-19T17:46:23.873Z,15.67
2023-12-19T17:48:51.927Z,13.70
2023-12-19T17:51:22.651Z,12.07
2023-12-19T17:53:50.732Z,17.73
2023-12-19T17:56:20.294Z,13.30
2023-12-19T17:58:48.418Z,11.73
2023-12-19T18:01:16.021Z,13.23
2023-12-19T18:03:43.653Z,12.97
2023-12-19T18:06:19.186Z,13.60
2023-12-19T18:08:47.519Z,12.30
2023-12-19T18:11:17.141Z,12.63
2023-12-19T18:13:44.533Z,12.57
2023-12-19T18:16:12.388Z,11.83
2023-12-19T18:18:39.874Z,10.60
2023-12-19T18:21:08.890Z,10.00
2023-12-19T18:23:38.369Z,10.03
2023-12-19T18:26:09.836Z,10.83
2023-12-19T18:28:37.291Z,10.50
2023-12-19T18:31:04.997Z,10.53
2023-12-19T18:33:32.749Z,9.97
2023-12-19T18:36:02.032Z,10.90
2023-12-19T18:38:29.854Z,9.80
2023-12-19T18:40:58.183Z,9.40
2023-12-19T18:43:25.675Z,10.10
2023-12-19T18:45:53.231Z,10.20
2023-12-19T18:48:22.293Z,9.97
2023-12-19T18:50:51.790Z,9.50
2023-12-19T18:53:19.376Z,10.20
2023-12-19T18:55:46.872Z,10.10
2023-12-19T18:58:14.407Z,8.70
2023-12-19T19:00:42.006Z,8.60
2023-12-19T19:03:09.549Z,9.07
2023-12-19T19:05:37.074Z,8.37
2023-12-19T19:08:04.798Z,8.57
2023-12-19T19:10:32.280Z,8.73
2023-12-19T19:12:59.772Z,8.67
2023-12-19T19:15:27.313Z,8.77
2023-12-19T19:17:54.833Z,8.50
2023-12-19T19:20:38.661Z,8.77
2023-12-19T19:23:08.151Z,8.17
2023-12-19T19:25:36.177Z,8.27
2023-12-19T19:28:03.983Z,8.43
2023-12-19T19:30:32.408Z,7.93
2023-12-19T19:33:00.695Z,9.50
2023-12-19T19:35:28.329Z,9.53
2023-12-19T19:37:55.913Z,8.90
2023-12-19T19:40:31.478Z,7.57
2023-12-19T19:43:06.240Z,7.87
2023-12-19T19:45:33.918Z,6.97
2023-12-19T19:48:01.681Z,7.10
2023-12-19T19:50:29.445Z,7.07
2023-12-19T19:52:56.980Z,7.07
2023-12-19T19:55:25.792Z,7.43
2023-12-19T19:57:53.930Z,6.87
2023-12-19T20:00:21.925Z,7.43
2023-12-19T20:02:49.584Z,7.93
2023-12-19T20:05:18.710Z,7.60
2023-12-19T20:07:46.218Z,8.17
2023-12-19T20:10:13.945Z,8.83
2023-12-19T20:12:41.587Z,8.80
2023-12-19T20:18:12.010Z,8.40
2023-12-19T20:20:40.106Z,8.37
2023-12-19T20:23:33.652Z,8.63
2023-12-19T20:26:02.151Z,9.40
2023-12-19T20:28:29.896Z,8.23
2023-12-19T20:30:58.762Z,8.50
2023-12-19T20:33:26.482Z,9.10
2023-12-19T20:35:54.096Z,8.23
2023-12-19T20:38:21.972Z,8.20
2023-12-19T20:40:51.238Z,7.77
2023-12-19T20:43:18.833Z,8.10
2023-12-19T20:45:46.579Z,8.57
2023-12-19T20:48:16.670Z,10.17
2023-12-19T20:50:44.476Z,8.43
2023-12-19T20:53:11.936Z,8.67
2023-12-19T20:55:39.788Z,8.47
2023-12-19T20:58:07.411Z,9.30
2023-12-19T21:00:35.456Z,7.23
2023-12-19T21:03:03.041Z,7.43
2023-12-19T21:05:30.604Z,7.60
2023-12-19T21:07:58.419Z,6.57
2023-12-19T21:10:26.054Z,6.93
2023-12-19T21:12:53.534Z,6.50
2023-12-19T21:15:21.028Z,6.33
2023-12-19T21:17:48.689Z,5.90
2023-12-19T21:20:16.305Z,5.53
2023-12-19T21:22:44.178Z,6.30
2023-12-19T21:25:12.112Z,6.20
2023-12-19T21:27:39.620Z,5.97
2023-12-19T21:30:07.783Z,5.20
2023-12-19T21:32:35.326Z,5.10
2023-12-19T21:35:06.467Z,4.70
2023-12-19T21:37:34.464Z,4.83
2023-12-19T21:40:02.288Z,4.67
2023-12-19T21:42:29.654Z,4.80
2023-12-19T21:44:58.128Z,4.70
2023-12-19T21:47:25.646Z,5.20
2023-12-19T21:49:53.163Z,4.23
2023-12-19T21:52:20.834Z,4.40
2023-12-19T21:54:48.470Z,5.13
2023-12-19T21:57:15.928Z,4.50
2023-12-19T21:59:44.891Z,4.10
2023-12-19T22:02:13.111Z,4.40
2023-12-19T22:04:40.768Z,4.30
2023-12-19T22:07:08.358Z,3.80
2023-12-19T22:09:35.983Z,3.90
2023-12-19T22:12:03.576Z,3.73
2023-12-19T22:14:31.020Z,3.50
2023-12-19T22:17:00.799Z,3.80
2023-12-19T22:19:29.112Z,3.37
2023-12-19T22:21:57.165Z,4.10
2023-12-19T22:24:24.610Z,4.63
2023-12-19T22:26:52.025Z,4.07
2023-12-19T22:29:19.858Z,3.67
2023-12-19T22:31:47.335Z,4.00
2023-12-19T22:34:14.884Z,5.00
2023-12-19T22:36:43.669Z,5.87
2023-12-19T22:39:11.720Z,9.53
2023-12-19T22:41:39.194Z,5.90
2023-12-19T22:44:07.322Z,4.30
2023-12-19T22:46:34.787Z,4.23
2023-12-19T22:49:02.406Z,4.80
2023-12-19T22:51:30.608Z,4.77
2023-12-19T22:53:58.153Z,4.30
2023-12-19T22:56:25.935Z,4.30
2023-12-19T22:58:53.754Z,4.10
2023-12-19T23:01:25.303Z,4.70
2023-12-19T23:03:54.542Z,4.70
2023-12-19T23:06:25.515Z,4.30
2023-12-19T23:08:53.081Z,4.00
2023-12-19T23:11:20.596Z,3.90
2023-12-19T23:13:48.165Z,4.20
2023-12-19T23:16:15.790Z,3.80
2023-12-19T23:18:43.620Z,3.70
2023-12-19T23:21:12.039Z,3.50
2023-12-19T23:23:39.642Z,3.27
2023-12-19T23:26:07.339Z,3.60
2023-12-19T23:28:35.047Z,3.40
2023-12-19T23:31:02.765Z,3.53
2023-12-19T23:33:30.439Z,3.33
2023-12-19T23:35:57.773Z,3.33
2023-12-19T23:38:25.149Z,2.80
2023-12-19T23:40:52.607Z,2.90
2023-12-19T23:43:20.227Z,2.60
2023-12-19T23:45:49.011Z,3.13
2023-12-19T23:48:17.990Z,2.60
2023-12-19T23:50:45.441Z,2.63
2023-12-19T23:53:12.845Z,2.63
2023-12-19T23:55:41.069Z,2.70
2023-12-19T23:58:10.886Z,2.97
